createdAt,value
2022-09-15T00:01:36.773Z,8.93
2022-09-15T00:07:38.678Z,8.67
2022-09-15T00:13:40.348Z,8.88
2022-09-15T00:19:41.773Z,9.90
2022-09-15T00:25:45.502Z,8.80
2022-09-15T00:31:46.938Z,9.55
2022-09-15T00:37:48.373Z,9.23
2022-09-15T00:43:57.488Z,9.77
2022-09-15T00:50:06.495Z,9.30
2022-09-15T00:56:09.463Z,9.95
2022-09-15T01:02:22.152Z,9.77
2022-09-15T01:08:31.717Z,9.90
2022-09-15T01:14:33.183Z,9.55
2022-09-15T01:20:56.185Z,9.07
2022-09-15T01:27:24.415Z,10.48
2022-09-15T01:33:33.237Z,9.38
2022-09-15T01:39:37.379Z,10.40
2022-09-15T01:45:40.828Z,10.48
2022-09-15T01:51:45.909Z,10.00
2022-09-15T01:57:47.531Z,9.40
2022-09-15T02:03:51.152Z,9.52
2022-09-15T02:09:59.234Z,9.03
2022-09-15T02:16:00.880Z,9.50
2022-09-15T02:22:07.951Z,10.63
2022-09-15T02:28:13.698Z,9.05
2022-09-15T02:34:21.207Z,9.05
2022-09-15T02:40:23.007Z,9.60
2022-09-15T02:46:24.556Z,9.25
2022-09-15T02:52:26.149Z,9.40
2022-09-15T02:58:27.605Z,9.15
2022-09-15T03:04:29.016Z,8.80
2022-09-15T03:10:33.424Z,9.00
2022-09-15T03:16:35.218Z,9.27
2022-09-15T03:22:36.606Z,9.73
2022-09-15T03:28:38.803Z,9.73
2022-09-15T03:34:40.238Z,9.65
2022-09-15T03:40:45.210Z,10.40
2022-09-15T03:46:46.588Z,9.93
2022-09-15T03:52:58.817Z,9.90
2022-09-15T03:59:01.664Z,10.40
2022-09-15T04:05:03.609Z,10.50
2022-09-15T04:11:05.989Z,10.10
2022-09-15T04:17:07.371Z,10.32
2022-09-15T04:23:08.765Z,10.80
2022-09-15T04:29:14.176Z,9.70
2022-09-15T04:35:16.413Z,10.90
2022-09-15T04:41:21.843Z,10.67
2022-09-15T04:47:23.227Z,10.68
2022-09-15T04:53:24.839Z,10.07
2022-09-15T04:59:26.277Z,11.00
2022-09-15T05:05:27.684Z,11.45
2022-09-15T05:11:30.887Z,11.10
2022-09-15T05:17:32.731Z,11.50
2022-09-15T05:23:34.624Z,11.82
2022-09-15T05:29:36.267Z,12.00
2022-09-15T05:35:37.659Z,12.65
2022-09-15T05:41:41.201Z,12.30
2022-09-15T05:47:42.980Z,12.38
2022-09-15T05:53:44.433Z,11.82
2022-09-15T05:59:45.916Z,11.73
2022-09-15T06:05:47.834Z,11.45
2022-09-15T06:11:49.233Z,11.57
2022-09-15T06:17:50.933Z,11.00
2022-09-15T06:23:53.749Z,10.77
2022-09-15T06:29:55.206Z,10.67
2022-09-15T06:35:56.628Z,10.90
2022-09-15T06:42:02.646Z,10.67
2022-09-15T06:48:23.429Z,11.02
2022-09-15T06:54:26.073Z,10.52
2022-09-15T07:00:28.392Z,10.33
2022-09-15T07:06:30.710Z,10.27
2022-09-15T07:12:32.491Z,11.20
2022-09-15T07:18:37.644Z,10.82
2022-09-15T07:24:44.091Z,10.82
2022-09-15T07:30:50.836Z,12.10
2022-09-15T07:36:53.537Z,11.98
2022-09-15T07:42:56.017Z,12.30
2022-09-15T07:48:57.430Z,12.48
2022-09-15T07:54:58.803Z,12.73
2022-09-15T08:01:07.789Z,12.13
2022-09-15T08:07:09.314Z,12.90
2022-09-15T08:13:10.691Z,12.90
2022-09-15T08:19:12.106Z,12.57
2022-09-15T08:25:15.015Z,12.38
2022-09-15T08:31:19.957Z,12.60
2022-09-15T08:37:21.532Z,11.85
2022-09-15T08:43:25.508Z,10.90
2022-09-15T08:49:51.141Z,10.70
2022-09-15T08:55:54.960Z,9.68
2022-09-15T09:02:05.566Z,9.27
2022-09-15T09:08:30.066Z,10.65
2022-09-15T09:14:44.222Z,14.07
2022-09-15T09:21:04.527Z,13.20
2022-09-15T09:27:10.064Z,12.60
2022-09-15T09:33:24.794Z,11.43
2022-09-15T09:39:27.679Z,11.93
2022-09-15T09:45:29.050Z,9.40
2022-09-15T09:51:47.869Z,8.75
2022-09-15T09:57:49.311Z,8.45
2022-09-15T10:04:09.811Z,6.23
2022-09-15T10:10:19.312Z,5.57
2022-09-15T10:16:22.403Z,5.03
2022-09-15T10:22:32.103Z,4.93
2022-09-15T10:28:33.453Z,4.53
2022-09-15T10:34:36.280Z,4.00
2022-09-15T10:40:43.808Z,3.83
2022-09-15T10:47:03.835Z,4.27
2022-09-15T10:53:08.370Z,3.90
2022-09-15T10:59:15.548Z,3.58
2022-09-15T11:05:22.773Z,3.70
2022-09-15T11:11:44.949Z,3.75
2022-09-15T11:18:09.217Z,2.97
2022-09-15T11:24:38.243Z,2.08
2022-09-15T11:30:47.613Z,1.95
2022-09-15T11:36:51.940Z,1.60
2022-09-15T11:42:57.417Z,1.88
2022-09-15T11:49:13.843Z,1.40
2022-09-15T11:55:22.713Z,1.48
2022-09-15T12:01:35.235Z,1.63
2022-09-15T12:07:58.272Z,1.53
2022-09-15T12:14:01.986Z,1.33
2022-09-15T12:20:07.208Z,1.23
2022-09-15T12:26:14.678Z,1.13
2022-09-15T12:32:26.698Z,1.20
2022-09-15T12:38:30.316Z,1.10
2022-09-15T12:44:36.374Z,1.30
2022-09-15T12:50:39.012Z,1.27
2022-09-15T12:56:40.660Z,1.17
2022-09-15T13:02:43.943Z,1.60
2022-09-15T13:08:50.261Z,1.00
2022-09-15T13:14:53.713Z,1.15
2022-09-15T13:20:59.294Z,1.37
2022-09-15T13:27:01.445Z,1.27
2022-09-15T13:33:25.225Z,1.60
2022-09-15T13:39:42.042Z,1.50
2022-09-15T13:45:55.393Z,1.48
2022-09-15T13:51:59.655Z,1.80
2022-09-15T14:04:24.999Z,1.60
2022-09-15T14:10:28.054Z,1.23
2022-09-15T14:16:35.986Z,1.50
2022-09-15T14:22:40.530Z,1.80
2022-09-15T14:28:47.515Z,1.40
2022-09-15T14:34:49.138Z,2.10
2022-09-15T14:40:52.457Z,1.27
2022-09-15T14:46:56.351Z,1.30
2022-09-15T14:53:06.391Z,1.37
2022-09-15T14:59:10.848Z,1.35
2022-09-15T15:05:17.826Z,1.25
2022-09-15T15:11:21.999Z,1.20
2022-09-15T15:17:56.161Z,2.10
2022-09-15T15:23:57.752Z,1.60
2022-09-15T15:30:19.492Z,1.30
2022-09-15T15:36:22.446Z,1.42
2022-09-15T15:42:24.657Z,1.37
2022-09-15T15:48:27.641Z,1.30
2022-09-15T15:54:29.352Z,1.23
2022-09-15T16:00:49.522Z,1.67
2022-09-15T16:06:51.494Z,1.25
2022-09-15T16:12:52.890Z,1.47
2022-09-15T16:18:54.508Z,1.20
2022-09-15T16:24:55.914Z,1.20
2022-09-15T16:30:57.642Z,1.42
2022-09-15T16:36:59.053Z,1.10
2022-09-15T16:43:00.636Z,0.93
2022-09-15T16:49:03.246Z,1.10
2022-09-15T16:55:14.304Z,1.10
2022-09-15T17:01:17.437Z,1.00
2022-09-15T17:07:18.851Z,1.23
2022-09-15T17:13:23.933Z,0.90
2022-09-15T17:19:27.792Z,1.23
2022-09-15T17:25:37.024Z,1.10
2022-09-15T17:31:38.435Z,1.27
2022-09-15T17:37:39.818Z,1.25
2022-09-15T17:43:41.463Z,1.20
2022-09-15T17:49:42.873Z,1.30
2022-09-15T17:55:44.254Z,1.50
2022-09-15T18:01:45.732Z,1.20
2022-09-15T18:07:47.284Z,1.45
2022-09-15T18:13:48.654Z,1.23
2022-09-15T18:19:50.467Z,1.20
2022-09-15T18:25:52.163Z,1.23
2022-09-15T18:31:53.589Z,1.30
2022-09-15T18:37:56.169Z,1.20
2022-09-15T18:43:57.633Z,1.20
2022-09-15T18:49:59.143Z,1.38
2022-09-15T18:56:00.502Z,1.23
2022-09-15T19:02:01.967Z,1.30
2022-09-15T19:08:03.806Z,1.25
2022-09-15T19:14:05.248Z,1.27
2022-09-15T19:20:08.373Z,1.13
2022-09-15T19:26:16.710Z,0.93
2022-09-15T19:32:18.721Z,1.02
2022-09-15T19:38:20.291Z,1.05
2022-09-15T19:44:21.699Z,1.03
2022-09-15T19:50:23.289Z,1.05
2022-09-15T19:56:28.223Z,1.00
2022-09-15T20:02:29.654Z,1.27
2022-09-15T20:08:31.300Z,2.00
2022-09-15T20:14:32.739Z,1.13
2022-09-15T20:20:39.524Z,1.50
2022-09-15T20:26:41.299Z,1.00
2022-09-15T20:32:42.800Z,1.10
2022-09-15T20:38:44.806Z,0.75
2022-09-15T20:44:46.257Z,0.67
2022-09-15T20:50:47.682Z,0.90
2022-09-15T20:56:49.373Z,1.03
2022-09-15T21:02:51.480Z,1.00
2022-09-15T21:08:53.557Z,0.98
2022-09-15T21:14:55.354Z,1.20
2022-09-15T21:21:07.249Z,0.95
2022-09-15T21:27:26.873Z,1.00
2022-09-15T21:33:29.116Z,1.40
2022-09-15T21:39:30.562Z,1.30
2022-09-15T21:45:32.020Z,1.50
2022-09-15T21:51:33.414Z,1.52
2022-09-15T21:57:34.762Z,1.40
2022-09-15T22:03:37.459Z,1.45
2022-09-15T22:09:38.817Z,1.67
2022-09-15T22:15:40.227Z,1.53
2022-09-15T22:21:42.210Z,1.98
2022-09-15T22:27:43.712Z,1.70
2022-09-15T22:33:45.624Z,1.50
2022-09-15T22:39:58.367Z,1.52
2022-09-15T22:46:00.270Z,1.57
2022-09-15T22:52:01.919Z,1.50
2022-09-15T22:58:03.289Z,1.20
2022-09-15T23:04:04.704Z,1.40
2022-09-15T23:10:06.260Z,1.00
2022-09-15T23:16:08.037Z,1.00
2022-09-15T23:22:09.399Z,1.35
2022-09-15T23:28:10.760Z,1.10
2022-09-15T23:34:12.447Z,0.90
2022-09-15T23:40:14.114Z,1.02
2022-09-15T23:46:16.027Z,0.93
2022-09-15T23:52:17.410Z,1.20
2022-09-15T23:58:18.849Z,1.03
